sensor_id;sensor_type;location;lat;lon;timestamp;P1;durP1;ratioP1;P2;durP2;ratioP2
6475;SDS011;3271;51.910;5.840;2024-03-23T00:53:32;5.28;;;2.60;;
6475;SDS011;3271;51.910;5.840;2024-03-23T00:55:58;7.65;;;2.28;;
6475;SDS011;3271;51.910;5.840;2024-03-23T00:58:24;5.82;;;2.80;;
6475;SDS011;3271;51.910;5.840;2024-03-23T01:00:50;7.00;;;2.33;;
6475;SDS011;3271;51.910;5.840;2024-03-23T01:03:16;7.10;;;2.80;;
6475;SDS011;3271;51.910;5.840;2024-03-23T01:05:42;7.47;;;2.42;;
6475;SDS011;3271;51.910;5.840;2024-03-23T01:08:08;7.32;;;2.42;;
6475;SDS011;3271;51.910;5.840;2024-03-23T01:10:34;4.90;;;2.15;;
6475;SDS011;3271;51.910;5.840;2024-03-23T01:13:00;7.78;;;2.38;;
6475;SDS011;3271;51.910;5.840;2024-03-23T01:15:26;4.93;;;2.53;;
6475;SDS011;3271;51.910;5.840;2024-03-23T01:17:52;5.55;;;2.33;;
6475;SDS011;3271;51.910;5.840;2024-03-23T01:20:18;7.82;;;2.58;;
6475;SDS011;3271;51.910;5.840;2024-03-23T01:22:44;5.47;;;2.63;;
6475;SDS011;3271;51.910;5.840;2024-03-23T01:25:10;7.03;;;2.55;;
6475;SDS011;3271;51.910;5.840;2024-03-23T01:27:36;6.57;;;2.67;;
6475;SDS011;3271;51.910;5.840;2024-03-23T01:30:02;5.00;;;2.53;;
6475;SDS011;3271;51.910;5.840;2024-03-23T01:32:28;3.35;;;2.17;;
6475;SDS011;3271;51.910;5.840;2024-03-23T01:34:54;7.50;;;2.90;;
6475;SDS011;3271;51.910;5.840;2024-03-23T01:37:20;4.18;;;2.47;;
6475;SDS011;3271;51.910;5.840;2024-03-23T01:39:46;6.75;;;2.95;;
6475;SDS011;3271;51.910;5.840;2024-03-23T01:42:12;5.75;;;2.63;;
6475;SDS011;3271;51.910;5.840;2024-03-23T01:44:38;4.82;;;2.83;;
6475;SDS011;3271;51.910;5.840;2024-03-23T01:47:05;8.00;;;2.80;;
6475;SDS011;3271;51.910;5.840;2024-03-23T01:49:32;6.90;;;3.03;;
6475;SDS011;3271;51.910;5.840;2024-03-23T01:51:58;4.45;;;2.60;;
6475;SDS011;3271;51.910;5.840;2024-03-23T01:54:24;8.98;;;3.22;;
6475;SDS011;3271;51.910;5.840;2024-03-23T01:56:50;8.63;;;2.88;;
6475;SDS011;3271;51.910;5.840;2024-03-23T01:59:16;7.03;;;3.17;;
6475;SDS011;3271;51.910;5.840;2024-03-23T02:01:42;6.47;;;3.08;;
6475;SDS011;3271;51.910;5.840;2024-03-23T02:04:08;8.93;;;3.28;;
6475;SDS011;3271;51.910;5.840;2024-03-23T02:06:34;7.25;;;3.30;;
6475;SDS011;3271;51.910;5.840;2024-03-23T02:09:00;9.45;;;2.92;;
6475;SDS011;3271;51.910;5.840;2024-03-23T02:11:27;6.40;;;3.08;;
6475;SDS011;3271;51.910;5.840;2024-03-23T02:13:53;9.35;;;3.58;;
6475;SDS011;3271;51.910;5.840;2024-03-23T02:16:18;6.22;;;3.30;;
6475;SDS011;3271;51.910;5.840;2024-03-23T02:18:44;6.85;;;3.33;;
6475;SDS011;3271;51.910;5.840;2024-03-23T02:21:10;7.28;;;4.05;;
6475;SDS011;3271;51.910;5.840;2024-03-23T02:23:36;8.77;;;3.38;;
6475;SDS011;3271;51.910;5.840;2024-03-23T02:26:02;7.00;;;3.78;;
6475;SDS011;3271;51.910;5.840;2024-03-23T02:28:28;7.57;;;3.22;;
6475;SDS011;3271;51.910;5.840;2024-03-23T02:30:54;9.23;;;3.88;;
6475;SDS011;3271;51.910;5.840;2024-03-23T02:33:20;7.15;;;3.47;;
6475;SDS011;3271;51.910;5.840;2024-03-23T02:35:46;6.30;;;3.15;;
6475;SDS011;3271;51.910;5.840;2024-03-23T02:38:13;10.40;;;4.15;;
6475;SDS011;3271;51.910;5.840;2024-03-23T02:40:39;6.00;;;4.00;;
6475;SDS011;3271;51.910;5.840;2024-03-23T02:43:05;9.90;;;3.83;;
6475;SDS011;3271;51.910;5.840;2024-03-23T02:45:31;7.10;;;3.65;;
6475;SDS011;3271;51.910;5.840;2024-03-23T02:47:57;6.05;;;3.63;;
6475;SDS011;3271;51.910;5.840;2024-03-23T02:50:23;9.05;;;3.72;;
6475;SDS011;3271;51.910;5.840;2024-03-23T02:52:49;12.10;;;5.22;;
6475;SDS011;3271;51.910;5.840;2024-03-23T02:55:15;5.65;;;3.80;;
6475;SDS011;3271;51.910;5.840;2024-03-23T02:57:42;8.32;;;4.13;;
6475;SDS011;3271;51.910;5.840;2024-03-23T03:00:08;9.98;;;5.35;;
6475;SDS011;3271;51.910;5.840;2024-03-23T03:02:35;9.05;;;4.60;;
6475;SDS011;3271;51.910;5.840;2024-03-23T03:05:02;10.38;;;4.75;;
6475;SDS011;3271;51.910;5.840;2024-03-23T03:07:30;10.02;;;4.88;;
6475;SDS011;3271;51.910;5.840;2024-03-23T03:09:55;9.95;;;4.70;;
6475;SDS011;3271;51.910;5.840;2024-03-23T03:12:21;5.90;;;4.93;;
6475;SDS011;3271;51.910;5.840;2024-03-23T03:14:48;10.77;;;5.03;;
6475;SDS011;3271;51.910;5.840;2024-03-23T03:17:14;12.65;;;5.90;;
6475;SDS011;3271;51.910;5.840;2024-03-23T03:19:40;10.25;;;5.18;;
6475;SDS011;3271;51.910;5.840;2024-03-23T03:22:06;9.80;;;4.93;;
6475;SDS011;3271;51.910;5.840;2024-03-23T03:24:32;9.13;;;4.75;;
6475;SDS011;3271;51.910;5.840;2024-03-23T03:26:58;9.65;;;5.00;;
6475;SDS011;3271;51.910;5.840;2024-03-23T03:29:24;11.27;;;5.78;;
6475;SDS011;3271;51.910;5.840;2024-03-23T03:31:50;9.90;;;5.72;;
6475;SDS011;3271;51.910;5.840;2024-03-23T03:34:16;9.25;;;5.13;;
6475;SDS011;3271;51.910;5.840;2024-03-23T03:36:42;11.15;;;6.05;;
6475;SDS011;3271;51.910;5.840;2024-03-23T03:39:08;9.50;;;5.55;;
6475;SDS011;3271;51.910;5.840;2024-03-23T03:41:35;9.82;;;5.35;;
6475;SDS011;3271;51.910;5.840;2024-03-23T03:44:01;9.10;;;5.70;;
6475;SDS011;3271;51.910;5.840;2024-03-23T03:46:27;10.98;;;5.20;;
6475;SDS011;3271;51.910;5.840;2024-03-23T03:48:54;7.05;;;4.95;;
6475;SDS011;3271;51.910;5.840;2024-03-23T03:51:20;14.13;;;6.55;;
6475;SDS011;3271;51.910;5.840;2024-03-23T03:53:46;10.82;;;5.68;;
6475;SDS011;3271;51.910;5.840;2024-03-23T03:56:12;10.25;;;5.32;;
6475;SDS011;3271;51.910;5.840;2024-03-23T03:58:38;8.27;;;5.07;;
6475;SDS011;3271;51.910;5.840;2024-03-23T04:01:05;10.95;;;5.65;;
6475;SDS011;3271;51.910;5.840;2024-03-23T04:03:31;10.38;;;5.28;;
6475;SDS011;3271;51.910;5.840;2024-03-23T04:05:57;8.20;;;4.18;;
6475;SDS011;3271;51.910;5.840;2024-03-23T04:08:23;10.52;;;4.90;;
6475;SDS011;3271;51.910;5.840;2024-03-23T04:10:49;9.50;;;4.50;;
6475;SDS011;3271;51.910;5.840;2024-03-23T04:13:15;10.77;;;5.05;;
6475;SDS011;3271;51.910;5.840;2024-03-23T04:15:41;9.43;;;4.60;;
6475;SDS011;3271;51.910;5.840;2024-03-23T04:18:07;10.85;;;4.97;;
6475;SDS011;3271;51.910;5.840;2024-03-23T04:20:33;9.95;;;3.88;;
6475;SDS011;3271;51.910;5.840;2024-03-23T04:22:59;8.23;;;4.75;;
6475;SDS011;3271;51.910;5.840;2024-03-23T04:25:25;10.55;;;4.10;;
6475;SDS011;3271;51.910;5.840;2024-03-23T04:27:51;8.20;;;4.32;;
6475;SDS011;3271;51.910;5.840;2024-03-23T04:30:17;6.95;;;4.00;;
6475;SDS011;3271;51.910;5.840;2024-03-23T04:32:44;9.73;;;3.88;;
6475;SDS011;3271;51.910;5.840;2024-03-23T04:35:10;10.02;;;4.05;;
6475;SDS011;3271;51.910;5.840;2024-03-23T04:37:37;8.90;;;4.28;;
6475;SDS011;3271;51.910;5.840;2024-03-23T04:40:03;9.45;;;3.80;;
6475;SDS011;3271;51.910;5.840;2024-03-23T04:42:30;8.02;;;3.70;;
6475;SDS011;3271;51.910;5.840;2024-03-23T04:44:56;6.43;;;3.33;;
6475;SDS011;3271;51.910;5.840;2024-03-23T04:47:22;10.82;;;3.85;;
6475;SDS011;3271;51.910;5.840;2024-03-23T04:49:48;7.30;;;3.20;;
6475;SDS011;3271;51.910;5.840;2024-03-23T04:52:14;9.05;;;3.17;;
6475;SDS011;3271;51.910;5.840;2024-03-23T04:54:40;8.45;;;3.42;;
6475;SDS011;3271;51.910;5.840;2024-03-23T04:57:06;7.82;;;3.70;;
6475;SDS011;3271;51.910;5.840;2024-03-23T04:59:32;9.75;;;3.17;;
6475;SDS011;3271;51.910;5.840;2024-03-23T05:01:58;6.80;;;2.95;;
6475;SDS011;3271;51.910;5.840;2024-03-23T05:04:28;10.32;;;4.13;;
6475;SDS011;3271;51.910;5.840;2024-03-23T05:06:54;7.30;;;3.40;;
6475;SDS011;3271;51.910;5.840;2024-03-23T05:09:20;12.20;;;4.50;;
6475;SDS011;3271;51.910;5.840;2024-03-23T05:11:46;5.30;;;2.90;;
6475;SDS011;3271;51.910;5.840;2024-03-23T05:14:13;6.88;;;3.47;;
6475;SDS011;3271;51.910;5.840;2024-03-23T05:16:39;9.13;;;3.40;;
6475;SDS011;3271;51.910;5.840;2024-03-23T05:19:05;7.72;;;3.42;;
6475;SDS011;3271;51.910;5.840;2024-03-23T05:21:31;8.13;;;3.10;;
6475;SDS011;3271;51.910;5.840;2024-03-23T05:23:57;6.90;;;3.20;;
6475;SDS011;3271;51.910;5.840;2024-03-23T05:26:23;6.53;;;3.08;;
6475;SDS011;3271;51.910;5.840;2024-03-23T05:28:49;5.82;;;2.63;;
6475;SDS011;3271;51.910;5.840;2024-03-23T05:31:25;6.70;;;3.80;;
6475;SDS011;3271;51.910;5.840;2024-03-23T05:33:51;8.32;;;3.50;;
6475;SDS011;3271;51.910;5.840;2024-03-23T05:36:17;6.10;;;3.25;;
6475;SDS011;3271;51.910;5.840;2024-03-23T05:38:43;9.23;;;3.45;;
6475;SDS011;3271;51.910;5.840;2024-03-23T05:41:09;8.10;;;3.60;;
6475;SDS011;3271;51.910;5.840;2024-03-23T05:43:35;6.03;;;2.92;;
6475;SDS011;3271;51.910;5.840;2024-03-23T05:46:01;7.82;;;3.28;;
6475;SDS011;3271;51.910;5.840;2024-03-23T05:48:27;5.43;;;3.08;;
6475;SDS011;3271;51.910;5.840;2024-03-23T05:50:55;6.60;;;3.03;;
6475;SDS011;3271;51.910;5.840;2024-03-23T05:53:21;5.97;;;3.20;;
6475;SDS011;3271;51.910;5.840;2024-03-23T05:55:47;8.05;;;3.10;;
6475;SDS011;3271;51.910;5.840;2024-03-23T05:58:14;9.27;;;3.35;;
6475;SDS011;3271;51.910;5.840;2024-03-23T06:00:40;7.75;;;2.88;;
6475;SDS011;3271;51.910;5.840;2024-03-23T06:03:07;6.35;;;3.20;;
6475;SDS011;3271;51.910;5.840;2024-03-23T06:05:33;6.03;;;3.00;;
6475;SDS011;3271;51.910;5.840;2024-03-23T06:07:59;8.98;;;3.38;;
6475;SDS011;3271;51.910;5.840;2024-03-23T06:10:25;7.70;;;4.05;;
6475;SDS011;3271;51.910;5.840;2024-03-23T06:12:51;9.73;;;3.40;;
6475;SDS011;3271;51.910;5.840;2024-03-23T06:15:18;6.22;;;2.75;;
6475;SDS011;3271;51.910;5.840;2024-03-23T06:17:44;10.00;;;3.33;;
6475;SDS011;3271;51.910;5.840;2024-03-23T06:20:10;11.05;;;3.60;;
6475;SDS011;3271;51.910;5.840;2024-03-23T06:22:36;5.88;;;2.90;;
6475;SDS011;3271;51.910;5.840;2024-03-23T06:25:02;6.20;;;2.80;;
6475;SDS011;3271;51.910;5.840;2024-03-23T06:27:28;5.15;;;2.75;;
6475;SDS011;3271;51.910;5.840;2024-03-23T06:29:54;7.25;;;3.30;;
6475;SDS011;3271;51.910;5.840;2024-03-23T06:32:20;8.30;;;2.85;;
6475;SDS011;3271;51.910;5.840;2024-03-23T06:34:46;10.82;;;3.75;;
6475;SDS011;3271;51.910;5.840;2024-03-23T06:37:12;7.72;;;3.13;;
6475;SDS011;3271;51.910;5.840;2024-03-23T06:39:38;6.20;;;2.88;;
6475;SDS011;3271;51.910;5.840;2024-03-23T06:42:04;3.60;;;2.70;;
6475;SDS011;3271;51.910;5.840;2024-03-23T06:44:31;11.15;;;2.88;;
6475;SDS011;3271;51.910;5.840;2024-03-23T06:46:57;5.55;;;2.58;;
6475;SDS011;3271;51.910;5.840;2024-03-23T06:49:23;7.90;;;2.75;;
6475;SDS011;3271;51.910;5.840;2024-03-23T06:51:49;7.35;;;2.65;;
6475;SDS011;3271;51.910;5.840;2024-03-23T06:54:19;9.60;;;3.28;;
6475;SDS011;3271;51.910;5.840;2024-03-23T06:56:45;8.32;;;3.33;;
6475;SDS011;3271;51.910;5.840;2024-03-23T06:59:11;9.18;;;3.22;;
6475;SDS011;3271;51.910;5.840;2024-03-23T07:01:37;8.63;;;3.85;;
6475;SDS011;3271;51.910;5.840;2024-03-23T07:04:03;6.13;;;2.55;;
6475;SDS011;3271;51.910;5.840;2024-03-23T07:06:29;8.00;;;3.33;;
6475;SDS011;3271;51.910;5.840;2024-03-23T07:08:55;6.68;;;2.60;;
6475;SDS011;3271;51.910;5.840;2024-03-23T07:11:22;4.50;;;2.50;;
6475;SDS011;3271;51.910;5.840;2024-03-23T07:13:52;5.55;;;2.30;;
6475;SDS011;3271;51.910;5.840;2024-03-23T07:16:21;7.57;;;3.55;;
6475;SDS011;3271;51.910;5.840;2024-03-23T07:18:49;6.10;;;2.40;;
6475;SDS011;3271;51.910;5.840;2024-03-23T07:21:15;8.50;;;3.13;;
6475;SDS011;3271;51.910;5.840;2024-03-23T07:23:43;4.80;;;2.63;;
6475;SDS011;3271;51.910;5.840;2024-03-23T07:26:12;6.22;;;3.15;;
6475;SDS011;3271;51.910;5.840;2024-03-23T07:28:38;5.68;;;2.95;;
6475;SDS011;3271;51.910;5.840;2024-03-23T07:31:09;7.35;;;2.70;;
6475;SDS011;3271;51.910;5.840;2024-03-23T07:33:35;10.20;;;2.70;;
6475;SDS011;3271;51.910;5.840;2024-03-23T07:36:02;5.97;;;2.70;;
6475;SDS011;3271;51.910;5.840;2024-03-23T07:38:28;7.10;;;3.03;;
6475;SDS011;3271;51.910;5.840;2024-03-23T07:43:32;7.07;;;2.67;;
6475;SDS011;3271;51.910;5.840;2024-03-23T07:45:59;6.10;;;2.72;;
6475;SDS011;3271;51.910;5.840;2024-03-23T07:48:25;9.23;;;2.50;;
6475;SDS011;3271;51.910;5.840;2024-03-23T07:51:01;10.82;;;3.65;;
6475;SDS011;3271;51.910;5.840;2024-03-23T07:53:28;9.45;;;3.78;;
6475;SDS011;3271;51.910;5.840;2024-03-23T07:55:58;8.02;;;3.13;;
6475;SDS011;3271;51.910;5.840;2024-03-23T07:58:24;6.75;;;2.25;;
6475;SDS011;3271;51.910;5.840;2024-03-23T08:00:51;7.97;;;2.90;;
6475;SDS011;3271;51.910;5.840;2024-03-23T08:03:17;8.32;;;3.10;;
6475;SDS011;3271;51.910;5.840;2024-03-23T08:05:43;6.32;;;3.03;;
6475;SDS011;3271;51.910;5.840;2024-03-23T08:08:09;7.80;;;2.85;;
6475;SDS011;3271;51.910;5.840;2024-03-23T08:10:36;7.97;;;3.33;;
6475;SDS011;3271;51.910;5.840;2024-03-23T08:13:02;10.52;;;3.42;;
6475;SDS011;3271;51.910;5.840;2024-03-23T08:15:29;6.05;;;2.72;;
6475;SDS011;3271;51.910;5.840;2024-03-23T08:17:57;9.45;;;3.42;;
6475;SDS011;3271;51.910;5.840;2024-03-23T08:20:23;5.50;;;2.75;;
6475;SDS011;3271;51.910;5.840;2024-03-23T08:22:49;10.50;;;2.55;;
6475;SDS011;3271;51.910;5.840;2024-03-23T08:25:16;5.35;;;2.30;;
6475;SDS011;3271;51.910;5.840;2024-03-23T08:27:44;5.72;;;3.08;;
6475;SDS011;3271;51.910;5.840;2024-03-23T08:30:10;4.40;;;2.70;;
6475;SDS011;3271;51.910;5.840;2024-03-23T08:32:36;6.35;;;2.15;;
6475;SDS011;3271;51.910;5.840;2024-03-23T08:35:02;5.25;;;2.10;;
6475;SDS011;3271;51.910;5.840;2024-03-23T08:37:28;6.53;;;2.38;;
6475;SDS011;3271;51.910;5.840;2024-03-23T08:39:54;8.07;;;2.70;;
6475;SDS011;3271;51.910;5.840;2024-03-23T08:42:20;5.00;;;2.30;;
6475;SDS011;3271;51.910;5.840;2024-03-23T08:44:46;4.80;;;2.20;;
6475;SDS011;3271;51.910;5.840;2024-03-23T08:47:15;7.65;;;2.40;;
6475;SDS011;3271;51.910;5.840;2024-03-23T08:49:41;8.75;;;2.40;;
6475;SDS011;3271;51.910;5.840;2024-03-23T08:52:07;5.65;;;2.33;;
6475;SDS011;3271;51.910;5.840;2024-03-23T08:54:33;5.03;;;2.10;;
6475;SDS011;3271;51.910;5.840;2024-03-23T08:56:59;5.82;;;2.10;;
6475;SDS011;3271;51.910;5.840;2024-03-23T08:59:25;6.40;;;2.13;;
6475;SDS011;3271;51.910;5.840;2024-03-23T09:01:51;5.07;;;2.22;;
6475;SDS011;3271;51.910;5.840;2024-03-23T09:04:17;4.22;;;2.10;;
6475;SDS011;3271;51.910;5.840;2024-03-23T09:06:43;5.70;;;2.25;;
6475;SDS011;3271;51.910;5.840;2024-03-23T09:09:09;6.18;;;2.35;;
6475;SDS011;3271;51.910;5.840;2024-03-23T09:11:35;7.75;;;2.25;;
6475;SDS011;3271;51.910;5.840;2024-03-23T09:14:02;8.25;;;2.55;;
6475;SDS011;3271;51.910;5.840;2024-03-23T09:16:28;6.38;;;2.35;;
6475;SDS011;3271;51.910;5.840;2024-03-23T09:18:54;4.80;;;1.90;;
6475;SDS011;3271;51.910;5.840;2024-03-23T09:21:20;5.25;;;1.60;;
6475;SDS011;3271;51.910;5.840;2024-03-23T09:23:46;4.22;;;1.63;;
6475;SDS011;3271;51.910;5.840;2024-03-23T09:26:12;2.63;;;1.45;;
6475;SDS011;3271;51.910;5.840;2024-03-23T09:28:38;3.58;;;1.35;;
6475;SDS011;3271;51.910;5.840;2024-03-23T09:31:05;3.97;;;1.33;;
6475;SDS011;3271;51.910;5.840;2024-03-23T09:33:32;3.80;;;1.58;;
6475;SDS011;3271;51.910;5.840;2024-03-23T09:35:58;7.43;;;2.30;;
6475;SDS011;3271;51.910;5.840;2024-03-23T09:38:24;5.47;;;2.20;;
6475;SDS011;3271;51.910;5.840;2024-03-23T09:40:50;4.90;;;2.30;;
6475;SDS011;3271;51.910;5.840;2024-03-23T09:43:18;4.25;;;2.10;;
6475;SDS011;3271;51.910;5.840;2024-03-23T09:45:44;8.13;;;2.40;;
6475;SDS011;3271;51.910;5.840;2024-03-23T09:48:10;5.97;;;2.30;;
6475;SDS011;3271;51.910;5.840;2024-03-23T09:50:37;3.38;;;1.63;;
6475;SDS011;3271;51.910;5.840;2024-03-23T09:53:04;6.05;;;2.05;;
6475;SDS011;3271;51.910;5.840;2024-03-23T09:55:30;3.17;;;1.50;;
6475;SDS011;3271;51.910;5.840;2024-03-23T09:57:56;3.85;;;2.50;;
6475;SDS011;3271;51.910;5.840;2024-03-23T10:00:22;5.82;;;2.15;;
6475;SDS011;3271;51.910;5.840;2024-03-23T10:02:48;4.18;;;1.65;;
6475;SDS011;3271;51.910;5.840;2024-03-23T10:05:21;3.25;;;1.83;;
6475;SDS011;3271;51.910;5.840;2024-03-23T10:07:48;5.57;;;2.08;;
6475;SDS011;3271;51.910;5.840;2024-03-23T10:10:15;6.30;;;2.40;;
6475;SDS011;3271;51.910;5.840;2024-03-23T10:12:47;6.95;;;2.00;;
6475;SDS011;3271;51.910;5.840;2024-03-23T10:15:19;3.67;;;1.98;;
6475;SDS011;3271;51.910;5.840;2024-03-23T10:17:45;3.63;;;2.15;;
6475;SDS011;3271;51.910;5.840;2024-03-23T10:20:11;2.35;;;1.80;;
6475;SDS011;3271;51.910;5.840;2024-03-23T10:22:38;4.47;;;2.45;;
6475;SDS011;3271;51.910;5.840;2024-03-23T10:25:07;4.65;;;1.88;;
6475;SDS011;3271;51.910;5.840;2024-03-23T10:27:34;6.18;;;2.47;;
6475;SDS011;3271;51.910;5.840;2024-03-23T10:30:13;6.13;;;1.95;;
6475;SDS011;3271;51.910;5.840;2024-03-23T10:32:42;4.85;;;2.15;;
6475;SDS011;3271;51.910;5.840;2024-03-23T10:37:44;5.22;;;1.75;;
6475;SDS011;3271;51.910;5.840;2024-03-23T10:40:12;5.25;;;2.05;;
6475;SDS011;3271;51.910;5.840;2024-03-23T10:42:38;1.92;;;1.50;;
6475;SDS011;3271;51.910;5.840;2024-03-23T10:45:05;3.80;;;1.98;;
6475;SDS011;3271;51.910;5.840;2024-03-23T10:47:32;3.67;;;2.10;;
6475;SDS011;3271;51.910;5.840;2024-03-23T10:49:58;4.35;;;2.22;;
6475;SDS011;3271;51.910;5.840;2024-03-23T10:52:24;7.15;;;2.30;;
6475;SDS011;3271;51.910;5.840;2024-03-23T10:54:52;5.40;;;2.83;;
6475;SDS011;3271;51.910;5.840;2024-03-23T10:57:20;6.93;;;2.60;;
6475;SDS011;3271;51.910;5.840;2024-03-23T10:59:47;6.80;;;2.40;;
6475;SDS011;3271;51.910;5.840;2024-03-23T11:02:19;6.47;;;2.38;;
6475;SDS011;3271;51.910;5.840;2024-03-23T11:04:45;6.97;;;2.15;;
6475;SDS011;3271;51.910;5.840;2024-03-23T11:09:50;4.07;;;1.77;;
6475;SDS011;3271;51.910;5.840;2024-03-23T11:17:21;6.10;;;2.17;;
6475;SDS011;3271;51.910;5.840;2024-03-23T11:27:40;4.75;;;2.42;;
6475;SDS011;3271;51.910;5.840;2024-03-23T11:30:11;2.95;;;1.60;;
6475;SDS011;3271;51.910;5.840;2024-03-23T11:32:37;2.55;;;1.63;;
6475;SDS011;3271;51.910;5.840;2024-03-23T11:35:03;6.35;;;2.42;;
6475;SDS011;3271;51.910;5.840;2024-03-23T11:37:29;3.33;;;1.88;;
6475;SDS011;3271;51.910;5.840;2024-03-23T11:39:55;5.80;;;1.90;;
6475;SDS011;3271;51.910;5.840;2024-03-23T11:42:21;5.78;;;2.00;;
6475;SDS011;3271;51.910;5.840;2024-03-23T11:44:47;4.55;;;1.90;;
6475;SDS011;3271;51.910;5.840;2024-03-23T11:47:13;5.00;;;1.67;;
6475;SDS011;3271;51.910;5.840;2024-03-23T11:49:38;4.30;;;1.60;;
6475;SDS011;3271;51.910;5.840;2024-03-23T11:52:07;4.13;;;1.92;;
6475;SDS011;3271;51.910;5.840;2024-03-23T11:54:33;2.95;;;1.55;;
6475;SDS011;3271;51.910;5.840;2024-03-23T11:57:00;4.88;;;1.88;;
6475;SDS011;3271;51.910;5.840;2024-03-23T11:59:33;3.58;;;1.50;;
6475;SDS011;3271;51.910;5.840;2024-03-23T12:01:59;5.32;;;2.03;;
6475;SDS011;3271;51.910;5.840;2024-03-23T12:04:26;4.53;;;1.48;;
6475;SDS011;3271;51.910;5.840;2024-03-23T12:07:08;3.95;;;1.77;;
6475;SDS011;3271;51.910;5.840;2024-03-23T12:09:34;5.53;;;2.25;;
6475;SDS011;3271;51.910;5.840;2024-03-23T12:12:05;8.88;;;2.05;;
6475;SDS011;3271;51.910;5.840;2024-03-23T12:14:31;3.17;;;1.83;;
6475;SDS011;3271;51.910;5.840;2024-03-23T12:17:06;4.00;;;1.88;;
6475;SDS011;3271;51.910;5.840;2024-03-23T12:19:32;6.65;;;2.17;;
6475;SDS011;3271;51.910;5.840;2024-03-23T12:21:58;4.00;;;1.77;;
6475;SDS011;3271;51.910;5.840;2024-03-23T12:24:25;6.68;;;1.88;;
6475;SDS011;3271;51.910;5.840;2024-03-23T12:26:51;5.85;;;1.80;;
6475;SDS011;3271;51.910;5.840;2024-03-23T12:29:17;4.80;;;1.98;;
6475;SDS011;3271;51.910;5.840;2024-03-23T12:31:45;4.40;;;2.10;;
6475;SDS011;3271;51.910;5.840;2024-03-23T12:34:11;9.32;;;3.40;;
6475;SDS011;3271;51.910;5.840;2024-03-23T12:36:36;5.13;;;2.55;;
6475;SDS011;3271;51.910;5.840;2024-03-23T12:39:02;5.70;;;2.22;;
6475;SDS011;3271;51.910;5.840;2024-03-23T12:41:28;5.30;;;2.60;;
6475;SDS011;3271;51.910;5.840;2024-03-23T12:43:54;5.47;;;2.08;;
6475;SDS011;3271;51.910;5.840;2024-03-23T12:46:20;4.18;;;2.10;;
6475;SDS011;3271;51.910;5.840;2024-03-23T12:48:48;5.97;;;2.20;;
6475;SDS011;3271;51.910;5.840;2024-03-23T12:51:14;4.90;;;2.13;;
6475;SDS011;3271;51.910;5.840;2024-03-23T12:53:40;6.80;;;2.63;;
6475;SDS011;3271;51.910;5.840;2024-03-23T12:56:06;5.10;;;2.05;;
6475;SDS011;3271;51.910;5.840;2024-03-23T12:58:32;5.53;;;1.90;;
6475;SDS011;3271;51.910;5.840;2024-03-23T13:00:58;7.38;;;2.13;;
6475;SDS011;3271;51.910;5.840;2024-03-23T13:03:24;6.60;;;2.10;;
6475;SDS011;3271;51.910;5.840;2024-03-23T13:05:53;6.03;;;1.98;;
6475;SDS011;3271;51.910;5.840;2024-03-23T13:08:19;5.72;;;1.92;;
6475;SDS011;3271;51.910;5.840;2024-03-23T13:10:45;5.30;;;2.50;;
6475;SDS011;3271;51.910;5.840;2024-03-23T13:13:12;4.60;;;2.05;;
6475;SDS011;3271;51.910;5.840;2024-03-23T13:15:38;4.82;;;2.00;;
6475;SDS011;3271;51.910;5.840;2024-03-23T13:18:04;3.97;;;2.15;;
6475;SDS011;3271;51.910;5.840;2024-03-23T13:20:30;4.82;;;2.03;;
6475;SDS011;3271;51.910;5.840;2024-03-23T13:22:56;4.80;;;1.88;;
6475;SDS011;3271;51.910;5.840;2024-03-23T13:25:22;4.07;;;2.10;;
6475;SDS011;3271;51.910;5.840;2024-03-23T13:27:48;2.63;;;1.60;;
6475;SDS011;3271;51.910;5.840;2024-03-23T13:30:14;4.78;;;2.15;;
6475;SDS011;3271;51.910;5.840;2024-03-23T13:32:40;4.65;;;1.60;;
6475;SDS011;3271;51.910;5.840;2024-03-23T13:35:07;3.08;;;1.25;;
6475;SDS011;3271;51.910;5.840;2024-03-23T13:37:33;4.68;;;1.88;;
6475;SDS011;3271;51.910;5.840;2024-03-23T13:39:59;4.50;;;1.75;;
6475;SDS011;3271;51.910;5.840;2024-03-23T13:42:25;3.45;;;1.40;;
6475;SDS011;3271;51.910;5.840;2024-03-23T13:44:51;4.85;;;1.92;;
6475;SDS011;3271;51.910;5.840;2024-03-23T13:47:17;9.07;;;2.05;;
6475;SDS011;3271;51.910;5.840;2024-03-23T13:49:43;5.60;;;2.25;;
6475;SDS011;3271;51.910;5.840;2024-03-23T13:52:09;5.57;;;1.67;;
6475;SDS011;3271;51.910;5.840;2024-03-23T13:54:36;3.10;;;1.60;;
6475;SDS011;3271;51.910;5.840;2024-03-23T13:57:02;5.43;;;2.20;;
6475;SDS011;3271;51.910;5.840;2024-03-23T13:59:29;3.50;;;1.70;;
6475;SDS011;3271;51.910;5.840;2024-03-23T14:01:55;3.80;;;1.58;;
6475;SDS011;3271;51.910;5.840;2024-03-23T14:04:21;4.38;;;1.77;;
6475;SDS011;3271;51.910;5.840;2024-03-23T14:06:48;1.83;;;1.35;;
6475;SDS011;3271;51.910;5.840;2024-03-23T14:09:15;5.32;;;2.03;;
6475;SDS011;3271;51.910;5.840;2024-03-23T14:11:45;6.03;;;1.67;;
6475;SDS011;3271;51.910;5.840;2024-03-23T14:14:11;3.58;;;1.70;;
6475;SDS011;3271;51.910;5.840;2024-03-23T14:16:37;4.43;;;1.77;;
6475;SDS011;3271;51.910;5.840;2024-03-23T14:19:03;3.50;;;1.75;;
6475;SDS011;3271;51.910;5.840;2024-03-23T14:21:32;4.30;;;1.60;;
6475;SDS011;3271;51.910;5.840;2024-03-23T14:24:01;3.58;;;1.88;;
6475;SDS011;3271;51.910;5.840;2024-03-23T14:26:29;3.67;;;1.80;;
6475;SDS011;3271;51.910;5.840;2024-03-23T14:28:55;4.10;;;1.70;;
6475;SDS011;3271;51.910;5.840;2024-03-23T14:31:20;4.65;;;1.58;;
6475;SDS011;3271;51.910;5.840;2024-03-23T14:33:46;3.65;;;1.65;;
6475;SDS011;3271;51.910;5.840;2024-03-23T14:36:13;4.28;;;1.70;;
6475;SDS011;3271;51.910;5.840;2024-03-23T14:38:39;6.57;;;2.38;;
6475;SDS011;3271;51.910;5.840;2024-03-23T14:41:05;5.78;;;2.10;;
6475;SDS011;3271;51.910;5.840;2024-03-23T14:43:31;4.63;;;1.42;;
6475;SDS011;3271;51.910;5.840;2024-03-23T14:46:10;4.85;;;1.60;;
6475;SDS011;3271;51.910;5.840;2024-03-23T14:48:37;1.98;;;1.45;;
6475;SDS011;3271;51.910;5.840;2024-03-23T14:51:03;5.03;;;1.80;;
6475;SDS011;3271;51.910;5.840;2024-03-23T14:53:30;2.85;;;1.38;;
6475;SDS011;3271;51.910;5.840;2024-03-23T14:55:56;3.78;;;1.85;;
6475;SDS011;3271;51.910;5.840;2024-03-23T14:58:22;3.17;;;1.60;;
6475;SDS011;3271;51.910;5.840;2024-03-23T15:00:49;6.00;;;1.80;;
6475;SDS011;3271;51.910;5.840;2024-03-23T15:03:16;4.65;;;1.88;;
6475;SDS011;3271;51.910;5.840;2024-03-23T15:05:51;5.32;;;2.00;;
6475;SDS011;3271;51.910;5.840;2024-03-23T15:08:17;3.78;;;1.98;;
6475;SDS011;3271;51.910;5.840;2024-03-23T15:10:43;8.57;;;2.17;;
6475;SDS011;3271;51.910;5.840;2024-03-23T15:13:09;3.95;;;1.52;;
6475;SDS011;3271;51.910;5.840;2024-03-23T15:15:39;3.10;;;1.80;;
6475;SDS011;3271;51.910;5.840;2024-03-23T15:18:06;2.50;;;1.77;;
6475;SDS011;3271;51.910;5.840;2024-03-23T15:20:32;1.77;;;1.48;;
6475;SDS011;3271;51.910;5.840;2024-03-23T15:23:00;5.75;;;2.08;;
6475;SDS011;3271;51.910;5.840;2024-03-23T15:25:27;5.22;;;2.03;;
6475;SDS011;3271;51.910;5.840;2024-03-23T15:27:53;3.35;;;1.55;;
6475;SDS011;3271;51.910;5.840;2024-03-23T15:30:20;6.15;;;1.77;;
6475;SDS011;3271;51.910;5.840;2024-03-23T15:32:46;6.80;;;2.00;;
6475;SDS011;3271;51.910;5.840;2024-03-23T15:35:12;3.90;;;1.60;;
6475;SDS011;3271;51.910;5.840;2024-03-23T15:37:38;4.78;;;1.67;;
6475;SDS011;3271;51.910;5.840;2024-03-23T15:40:05;5.78;;;1.40;;
6475;SDS011;3271;51.910;5.840;2024-03-23T15:42:31;5.00;;;1.40;;
6475;SDS011;3271;51.910;5.840;2024-03-23T15:44:57;2.90;;;2.08;;
6475;SDS011;3271;51.910;5.840;2024-03-23T15:47:24;2.00;;;1.25;;
6475;SDS011;3271;51.910;5.840;2024-03-23T15:49:50;2.22;;;0.90;;
6475;SDS011;3271;51.910;5.840;2024-03-23T15:52:18;2.17;;;0.93;;
6475;SDS011;3271;51.910;5.840;2024-03-23T15:54:44;1.38;;;0.88;;
6475;SDS011;3271;51.910;5.840;2024-03-23T15:57:10;1.48;;;0.90;;
6475;SDS011;3271;51.910;5.840;2024-03-23T15:59:39;1.70;;;1.08;;
6475;SDS011;3271;51.910;5.840;2024-03-23T16:02:05;1.77;;;0.95;;
6475;SDS011;3271;51.910;5.840;2024-03-23T16:04:31;2.70;;;1.10;;
6475;SDS011;3271;51.910;5.840;2024-03-23T16:06:57;2.72;;;1.00;;
6475;SDS011;3271;51.910;5.840;2024-03-23T16:09:23;2.58;;;1.33;;
6475;SDS011;3271;51.910;5.840;2024-03-23T16:11:49;1.85;;;1.08;;
6475;SDS011;3271;51.910;5.840;2024-03-23T16:14:15;4.10;;;1.25;;
6475;SDS011;3271;51.910;5.840;2024-03-23T16:16:41;2.25;;;1.30;;
6475;SDS011;3271;51.910;5.840;2024-03-23T16:19:07;3.17;;;1.17;;
6475;SDS011;3271;51.910;5.840;2024-03-23T16:21:33;3.88;;;1.10;;
6475;SDS011;3271;51.910;5.840;2024-03-23T16:23:59;4.03;;;1.23;;